createdAt,value
2022-09-22T00:00:20.370Z,100.00
2022-09-22T00:01:24.981Z,100.00
2022-09-22T00:02:21.858Z,100.00
2022-09-22T00:03:18.674Z,100.00
2022-09-22T00:04:15.454Z,100.00
2022-09-22T00:05:12.491Z,100.00
2022-09-22T00:06:15.426Z,100.00
2022-09-22T00:07:12.261Z,100.00
2022-09-22T00:08:09.082Z,100.00
2022-09-22T00:09:09.320Z,100.00
2022-09-22T00:10:07.575Z,100.00
2022-09-22T00:11:17.034Z,100.00
2022-09-22T00:12:13.739Z,100.00
2022-09-22T00:13:10.438Z,100.00
2022-09-22T00:14:10.925Z,100.00
2022-09-22T00:15:09.031Z,100.00
2022-09-22T00:16:09.033Z,100.00
2022-09-22T00:17:06.013Z,100.00
2022-09-22T00:18:02.717Z,100.00
2022-09-22T00:19:00.037Z,100.00
2022-09-22T00:19:56.745Z,100.00
2022-09-22T00:20:53.569Z,100.00
2022-09-22T00:21:50.934Z,100.00
2022-09-22T00:22:51.974Z,100.00
2022-09-22T00:23:49.873Z,100.00
2022-09-22T00:24:46.587Z,100.00
2022-09-22T00:25:43.290Z,100.00
2022-09-22T00:26:40.381Z,100.00
2022-09-22T00:27:37.092Z,100.00
2022-09-22T00:28:35.006Z,100.00
2022-09-22T00:29:31.990Z,100.00
2022-09-22T00:30:30.222Z,100.00
2022-09-22T00:31:28.348Z,100.00
2022-09-22T00:32:25.071Z,100.00
2022-09-22T00:33:21.752Z,100.00
2022-09-22T00:34:21.430Z,100.00
2022-09-22T00:35:18.114Z,100.00
2022-09-22T00:36:16.875Z,100.00
2022-09-22T00:37:13.580Z,100.00
2022-09-22T00:38:10.393Z,100.00
2022-09-22T00:39:07.562Z,100.00
2022-09-22T00:40:04.840Z,100.00
2022-09-22T00:41:02.676Z,100.00
2022-09-22T00:41:59.945Z,100.00
2022-09-22T00:43:12.533Z,100.00
2022-09-22T00:44:35.929Z,100.00
2022-09-22T00:45:32.685Z,100.00
2022-09-22T00:46:29.425Z,100.00
2022-09-22T00:47:31.838Z,100.00
2022-09-22T00:48:33.735Z,100.00
2022-09-22T00:49:52.030Z,100.00
2022-09-22T00:50:53.306Z,100.00
2022-09-22T00:51:50.171Z,100.00
2022-09-22T00:52:56.895Z,100.00
2022-09-22T00:53:57.095Z,100.00
2022-09-22T00:54:58.849Z,100.00
2022-09-22T00:56:00.567Z,100.00
2022-09-22T00:57:03.661Z,100.00
2022-09-22T00:58:06.422Z,100.00
2022-09-22T00:59:08.434Z,100.00
2022-09-22T01:00:08.405Z,100.00
2022-09-22T01:01:05.442Z,100.00
2022-09-22T01:02:02.345Z,100.00
2022-09-22T01:03:02.269Z,100.00
2022-09-22T01:03:59.255Z,100.00
2022-09-22T01:04:56.022Z,100.00
2022-09-22T01:05:58.547Z,100.00
2022-09-22T01:06:58.726Z,100.00
2022-09-22T01:07:55.576Z,100.00
2022-09-22T01:08:53.001Z,100.00
2022-09-22T01:09:50.305Z,100.00
2022-09-22T01:10:48.781Z,100.00
2022-09-22T01:11:45.524Z,100.00
2022-09-22T01:12:55.975Z,100.00
2022-09-22T01:13:52.606Z,100.00
2022-09-22T01:15:06.948Z,100.00
2022-09-22T01:16:39.545Z,100.00
2022-09-22T01:17:51.423Z,100.00
2022-09-22T01:19:31.290Z,100.00
2022-09-22T01:20:49.251Z,100.00
2022-09-22T01:22:23.203Z,100.00
2022-09-22T01:23:24.505Z,100.00
2022-09-22T01:24:47.293Z,100.00
2022-09-22T01:26:08.738Z,100.00
2022-09-22T01:27:11.382Z,100.00
2022-09-22T01:28:23.206Z,100.00
2022-09-22T01:29:50.562Z,100.00
2022-09-22T01:31:01.800Z,100.00
2022-09-22T01:32:07.456Z,100.00
2022-09-22T01:33:23.353Z,100.00
2022-09-22T01:34:33.363Z,100.00
2022-09-22T01:35:31.138Z,100.00
2022-09-22T01:36:40.503Z,100.00
2022-09-22T01:37:54.214Z,100.00
2022-09-22T01:39:11.227Z,100.00
2022-09-22T01:40:14.057Z,100.00
2022-09-22T01:41:20.487Z,100.00
2022-09-22T01:42:33.032Z,100.00
2022-09-22T01:43:38.436Z,100.00
2022-09-22T01:44:47.953Z,100.00
2022-09-22T01:45:48.739Z,100.00
2022-09-22T01:47:09.606Z,100.00
2022-09-22T01:48:10.623Z,100.00
2022-09-22T01:49:13.816Z,100.00
2022-09-22T01:50:20.876Z,100.00
2022-09-22T01:51:34.786Z,100.00
2022-09-22T01:52:36.245Z,100.00
2022-09-22T01:53:44.130Z,100.00
2022-09-22T01:54:47.300Z,100.00
2022-09-22T01:55:55.296Z,100.00
2022-09-22T01:57:01.252Z,100.00
2022-09-22T01:58:10.091Z,100.00
2022-09-22T01:59:10.707Z,100.00
2022-09-22T02:00:10.852Z,100.00
2022-09-22T02:01:17.121Z,100.00
2022-09-22T02:02:42.934Z,100.00
2022-09-22T02:03:57.978Z,100.00
2022-09-22T02:05:03.450Z,100.00
2022-09-22T02:06:09.690Z,100.00
2022-09-22T02:07:11.038Z,100.00
2022-09-22T02:08:16.993Z,100.00
2022-09-22T02:09:19.024Z,100.00
2022-09-22T02:10:22.531Z,100.00
2022-09-22T02:11:19.223Z,100.00
2022-09-22T02:12:18.917Z,100.00
2022-09-22T02:13:15.651Z,100.00
2022-09-22T02:14:12.963Z,100.00
2022-09-22T02:15:30.676Z,100.00
2022-09-22T02:16:27.704Z,100.00
2022-09-22T02:17:24.395Z,100.00
2022-09-22T02:18:28.732Z,100.00
2022-09-22T02:19:33.928Z,100.00
2022-09-22T02:20:30.672Z,100.00
2022-09-22T02:21:30.273Z,100.00
2022-09-22T02:22:27.212Z,100.00
2022-09-22T02:23:24.201Z,100.00
2022-09-22T02:24:29.666Z,100.00
2022-09-22T02:25:27.758Z,100.00
2022-09-22T02:26:30.009Z,100.00
2022-09-22T02:27:36.784Z,100.00
2022-09-22T02:28:39.045Z,100.00
2022-09-22T02:29:45.463Z,100.00
2022-09-22T02:31:04.417Z,100.00
2022-09-22T02:32:10.304Z,100.00
2022-09-22T02:33:08.198Z,100.00
2022-09-22T02:34:08.829Z,100.00
2022-09-22T02:35:07.737Z,100.00
2022-09-22T02:36:24.364Z,100.00
2022-09-22T02:37:42.027Z,100.00
2022-09-22T02:39:04.464Z,100.00
2022-09-22T02:40:28.645Z,100.00
2022-09-22T02:41:36.801Z,100.00
2022-09-22T02:42:53.741Z,100.00
2022-09-22T02:44:09.038Z,100.00
2022-09-22T02:45:19.963Z,100.00
2022-09-22T02:46:43.606Z,100.00
2022-09-22T02:47:57.650Z,100.00
2022-09-22T02:49:06.218Z,100.00
2022-09-22T02:50:09.221Z,100.00
2022-09-22T02:51:07.345Z,100.00
2022-09-22T02:52:10.988Z,100.00
2022-09-22T02:53:17.133Z,100.00
2022-09-22T02:54:16.582Z,100.00
2022-09-22T02:55:13.886Z,100.00
2022-09-22T02:56:10.881Z,100.00
2022-09-22T02:57:09.111Z,100.00
2022-09-22T02:58:05.850Z,100.00
2022-09-22T02:59:02.518Z,100.00
2022-09-22T02:59:59.208Z,100.00
2022-09-22T03:00:56.742Z,100.00
2022-09-22T03:01:53.456Z,100.00
2022-09-22T03:02:50.300Z,100.00
2022-09-22T03:03:47.006Z,100.00
2022-09-22T03:04:43.847Z,100.00
2022-09-22T03:05:41.117Z,100.00
2022-09-22T03:06:38.604Z,100.00
2022-09-22T03:07:35.302Z,100.00
2022-09-22T03:08:32.102Z,100.00
2022-09-22T03:09:28.900Z,100.00
2022-09-22T03:10:25.613Z,100.00
2022-09-22T03:11:22.473Z,100.00
2022-09-22T03:12:19.298Z,100.00
2022-09-22T03:13:17.388Z,100.00
2022-09-22T03:14:14.315Z,100.00
2022-09-22T03:15:12.610Z,100.00
2022-09-22T03:16:09.457Z,100.00
2022-09-22T03:17:06.166Z,100.00
2022-09-22T03:18:04.028Z,100.00
2022-09-22T03:19:01.007Z,100.00
2022-09-22T03:19:57.690Z,100.00
2022-09-22T03:20:54.398Z,100.00
2022-09-22T03:21:51.068Z,100.00
2022-09-22T03:22:48.186Z,100.00
2022-09-22T03:23:44.963Z,100.00
2022-09-22T03:24:41.646Z,100.00
2022-09-22T03:25:38.357Z,100.00
2022-09-22T03:26:35.044Z,100.00
2022-09-22T03:27:31.849Z,100.00
2022-09-22T03:28:28.668Z,100.00
2022-09-22T03:29:25.385Z,100.00
2022-09-22T03:30:22.130Z,100.00
2022-09-22T03:31:18.867Z,100.00
2022-09-22T03:32:15.594Z,100.00
2022-09-22T03:33:12.457Z,100.00
2022-09-22T03:34:09.169Z,100.00
2022-09-22T03:35:07.004Z,100.00
2022-09-22T03:36:05.756Z,100.00
2022-09-22T03:37:02.439Z,100.00
2022-09-22T03:37:59.146Z,100.00
2022-09-22T03:38:55.939Z,100.00
2022-09-22T03:39:52.711Z,100.00
2022-09-22T03:40:51.234Z,100.00
2022-09-22T03:41:48.023Z,100.00
2022-09-22T03:42:44.877Z,100.00
2022-09-22T03:43:41.581Z,100.00
2022-09-22T03:44:38.274Z,100.00
2022-09-22T03:45:35.531Z,100.00
2022-09-22T03:46:32.311Z,100.00
2022-09-22T03:47:29.026Z,100.00
2022-09-22T03:48:27.973Z,100.00
2022-09-22T03:49:25.000Z,100.00
2022-09-22T03:50:21.871Z,100.00
2022-09-22T03:51:19.491Z,100.00
2022-09-22T03:52:16.678Z,100.00
2022-09-22T03:53:13.443Z,100.00
2022-09-22T03:54:10.361Z,100.00
2022-09-22T03:55:07.932Z,100.00
2022-09-22T03:56:10.564Z,100.00
2022-09-22T03:57:07.250Z,100.00
2022-09-22T03:58:04.371Z,100.00
2022-09-22T03:59:01.215Z,100.00
2022-09-22T03:59:57.914Z,100.00
2022-09-22T04:00:54.601Z,100.00
2022-09-22T04:01:54.809Z,100.00
2022-09-22T04:02:54.692Z,100.00
2022-09-22T04:03:51.483Z,100.00
2022-09-22T04:04:48.355Z,100.00
2022-09-22T04:05:51.835Z,100.00
2022-09-22T04:06:48.509Z,100.00
2022-09-22T04:07:45.224Z,100.00
2022-09-22T04:08:41.914Z,100.00
2022-09-22T04:09:38.762Z,100.00
2022-09-22T04:10:35.692Z,100.00
2022-09-22T04:11:33.007Z,100.00
2022-09-22T04:12:30.033Z,100.00
2022-09-22T04:13:27.418Z,100.00
2022-09-22T04:14:24.234Z,100.00
2022-09-22T04:15:20.986Z,100.00
2022-09-22T04:16:17.854Z,100.00
2022-09-22T04:17:15.167Z,100.00
2022-09-22T04:18:13.837Z,100.00
2022-09-22T04:19:10.525Z,100.00
2022-09-22T04:20:08.326Z,100.00
2022-09-22T04:21:05.200Z,100.00
2022-09-22T04:22:05.157Z,100.00
2022-09-22T04:23:01.841Z,100.00
2022-09-22T04:23:58.523Z,100.00
2022-09-22T04:24:55.314Z,100.00
2022-09-22T04:25:53.318Z,100.00
2022-09-22T04:27:15.248Z,100.00
2022-09-22T04:28:07.983Z,100.00
2022-09-22T04:29:04.974Z,100.00
2022-09-22T04:30:01.667Z,100.00
2022-09-22T04:30:58.489Z,100.00
2022-09-22T04:31:55.246Z,100.00
2022-09-22T04:32:51.931Z,100.00
2022-09-22T04:33:48.629Z,100.00
2022-09-22T04:34:45.716Z,100.00
2022-09-22T04:35:42.436Z,100.00
2022-09-22T04:36:39.360Z,100.00
2022-09-22T04:37:36.098Z,100.00
2022-09-22T04:38:33.270Z,100.00
2022-09-22T04:39:30.069Z,100.00
2022-09-22T04:40:27.383Z,100.00
2022-09-22T04:41:24.215Z,100.00
2022-09-22T04:42:21.590Z,100.00
2022-09-22T04:43:19.139Z,100.00
2022-09-22T04:44:15.868Z,100.00
2022-09-22T04:45:13.130Z,100.00
2022-09-22T04:46:09.890Z,100.00
2022-09-22T04:47:06.795Z,100.00
2022-09-22T04:48:04.596Z,100.00
2022-09-22T04:49:01.355Z,100.00
2022-09-22T04:49:58.101Z,100.00
2022-09-22T04:50:54.794Z,100.00
2022-09-22T04:51:51.594Z,100.00
2022-09-22T04:52:54.064Z,100.00
2022-09-22T04:53:50.745Z,100.00
2022-09-22T04:54:47.452Z,100.00
2022-09-22T04:55:44.320Z,100.00
2022-09-22T04:56:44.399Z,100.00
2022-09-22T04:57:42.443Z,100.00
2022-09-22T04:58:39.189Z,100.00
2022-09-22T04:59:35.942Z,100.00
2022-09-22T05:00:32.616Z,100.00
2022-09-22T05:01:29.421Z,100.00
2022-09-22T05:02:26.178Z,100.00
2022-09-22T05:03:22.942Z,100.00
2022-09-22T05:04:19.640Z,100.00
2022-09-22T05:05:17.312Z,100.00
2022-09-22T05:06:14.276Z,100.00
2022-09-22T05:07:10.976Z,100.00
2022-09-22T05:08:07.811Z,100.00
2022-09-22T05:09:04.689Z,100.00
2022-09-22T05:10:02.654Z,100.00
2022-09-22T05:10:59.807Z,100.00
2022-09-22T05:12:01.218Z,100.00
2022-09-22T05:12:59.116Z,100.00
2022-09-22T05:13:57.133Z,100.00
2022-09-22T05:14:53.821Z,100.00
2022-09-22T05:15:50.500Z,100.00
2022-09-22T05:16:47.230Z,100.00
2022-09-22T05:17:49.561Z,100.00
2022-09-22T05:18:46.535Z,100.00
2022-09-22T05:19:43.241Z,100.00
2022-09-22T05:20:39.982Z,100.00
2022-09-22T05:21:37.724Z,100.00
2022-09-22T05:22:39.743Z,100.00
2022-09-22T05:23:36.772Z,100.00
2022-09-22T05:24:33.524Z,100.00
2022-09-22T05:25:30.197Z,100.00
2022-09-22T05:26:27.579Z,100.00
2022-09-22T05:27:24.955Z,100.00
2022-09-22T05:28:24.393Z,100.00
2022-09-22T05:29:23.583Z,100.00
2022-09-22T05:30:26.894Z,100.00
2022-09-22T05:31:24.443Z,100.00
2022-09-22T05:32:21.176Z,100.00
2022-09-22T05:33:18.454Z,100.00
2022-09-22T05:34:15.177Z,100.00
2022-09-22T05:35:13.839Z,100.00
2022-09-22T05:36:10.515Z,100.00
2022-09-22T05:37:07.212Z,100.00
2022-09-22T05:38:04.142Z,100.00
2022-09-22T05:39:00.843Z,100.00
2022-09-22T05:39:57.531Z,100.00
2022-09-22T05:40:54.246Z,100.00
2022-09-22T05:41:51.277Z,100.00
2022-09-22T05:42:51.390Z,100.00
2022-09-22T05:43:48.153Z,100.00
2022-09-22T05:44:44.886Z,100.00
2022-09-22T05:45:46.428Z,100.00
2022-09-22T05:46:43.143Z,100.00
2022-09-22T05:47:40.514Z,100.00
2022-09-22T05:48:37.198Z,100.00
2022-09-22T05:49:33.906Z,100.00
2022-09-22T05:50:30.685Z,100.00
2022-09-22T05:51:27.387Z,100.00
2022-09-22T05:52:24.100Z,100.00
2022-09-22T05:53:39.243Z,100.00
2022-09-22T05:54:35.917Z,100.00
2022-09-22T05:55:33.249Z,100.00
2022-09-22T05:56:31.815Z,100.00
2022-09-22T05:57:28.867Z,100.00
2022-09-22T05:58:25.680Z,100.00
2022-09-22T05:59:22.434Z,100.00
2022-09-22T06:00:19.218Z,100.00
2022-09-22T06:01:16.038Z,100.00
2022-09-22T06:02:25.111Z,100.00
2022-09-22T06:03:23.015Z,100.00
2022-09-22T06:04:19.699Z,100.00
2022-09-22T06:05:19.123Z,100.00
2022-09-22T06:06:16.293Z,100.00
2022-09-22T06:07:15.279Z,100.00
2022-09-22T06:08:12.081Z,100.00
2022-09-22T06:09:08.856Z,100.00
2022-09-22T06:10:06.366Z,100.00
2022-09-22T06:11:03.104Z,100.00
2022-09-22T06:12:00.584Z,100.00
2022-09-22T06:13:07.892Z,100.00
2022-09-22T06:14:04.600Z,100.00
2022-09-22T06:15:01.347Z,100.00
2022-09-22T06:16:01.835Z,100.00
2022-09-22T06:16:59.118Z,100.00
2022-09-22T06:17:56.276Z,100.00
2022-09-22T06:18:52.965Z,100.00
2022-09-22T06:19:50.401Z,100.00
2022-09-22T06:20:47.094Z,100.00
2022-09-22T06:21:43.780Z,100.00
2022-09-22T06:22:40.466Z,100.00
2022-09-22T06:23:42.018Z,100.00
2022-09-22T06:24:39.558Z,100.00
2022-09-22T06:25:36.286Z,100.00
2022-09-22T06:26:33.038Z,100.00
2022-09-22T06:27:29.970Z,100.00
2022-09-22T06:28:26.826Z,100.00
2022-09-22T06:29:23.575Z,100.00
2022-09-22T06:30:20.280Z,100.00
2022-09-22T06:31:17.269Z,100.00
2022-09-22T06:32:14.003Z,100.00
2022-09-22T06:33:11.767Z,100.00
2022-09-22T06:34:08.560Z,100.00
2022-09-22T06:35:08.851Z,100.00
2022-09-22T06:36:07.162Z,100.00
2022-09-22T06:37:08.107Z,100.00
2022-09-22T06:38:11.048Z,100.00
2022-09-22T06:39:07.962Z,100.00
2022-09-22T06:40:08.291Z,100.00
2022-09-22T06:41:07.341Z,100.00
2022-09-22T06:42:05.604Z,100.00
2022-09-22T06:43:08.499Z,100.00
2022-09-22T06:44:05.366Z,100.00
2022-09-22T06:45:04.712Z,100.00
2022-09-22T06:46:02.864Z,100.00
2022-09-22T06:47:05.569Z,100.00
2022-09-22T06:48:07.589Z,100.00
2022-09-22T06:49:06.507Z,100.00
2022-09-22T06:50:05.652Z,100.00
2022-09-22T06:51:02.477Z,100.00
2022-09-22T06:51:59.428Z,100.00
2022-09-22T06:53:01.135Z,100.00
2022-09-22T06:53:57.838Z,100.00
2022-09-22T06:54:58.687Z,100.00
2022-09-22T06:55:55.473Z,100.00
2022-09-22T06:56:52.185Z,100.00
2022-09-22T06:57:48.943Z,100.00
2022-09-22T06:59:08.212Z,100.00
2022-09-22T07:00:04.314Z,100.00
2022-09-22T07:01:09.843Z,100.00
2022-09-22T07:02:07.620Z,100.00
2022-09-22T07:03:11.911Z,100.00
2022-09-22T07:04:10.096Z,100.00
2022-09-22T07:05:07.527Z,100.00
2022-09-22T07:06:06.298Z,100.00
2022-09-22T07:07:04.023Z,100.00
2022-09-22T07:08:01.338Z,100.00
2022-09-22T07:08:58.238Z,100.00
2022-09-22T07:09:55.706Z,100.00
2022-09-22T07:11:02.331Z,100.00
2022-09-22T07:12:00.382Z,100.00
2022-09-22T07:13:00.633Z,100.00
2022-09-22T07:13:58.503Z,100.00
2022-09-22T07:14:58.026Z,100.00
2022-09-22T07:16:00.354Z,100.00
2022-09-22T07:16:57.153Z,100.00
2022-09-22T07:17:53.998Z,100.00
2022-09-22T07:18:54.105Z,100.00
2022-09-22T07:19:51.424Z,100.00
2022-09-22T07:20:48.210Z,100.00
2022-09-22T07:21:45.153Z,100.00
2022-09-22T07:22:41.896Z,100.00
2022-09-22T07:23:40.869Z,100.00
2022-09-22T07:24:37.593Z,100.00
2022-09-22T07:25:35.943Z,100.00
2022-09-22T07:26:35.734Z,100.00
2022-09-22T07:27:32.476Z,100.00
2022-09-22T07:28:29.561Z,100.00
2022-09-22T07:29:26.270Z,100.00
2022-09-22T07:30:23.040Z,100.00
2022-09-22T07:31:21.386Z,100.00
2022-09-22T07:32:21.991Z,100.00
2022-09-22T07:33:19.814Z,100.00
2022-09-22T07:34:18.182Z,100.00
2022-09-22T07:35:15.075Z,100.00
2022-09-22T07:36:14.763Z,100.00
2022-09-22T07:37:11.446Z,100.00
2022-09-22T07:38:08.581Z,100.00
2022-09-22T07:39:08.144Z,100.00
2022-09-22T07:40:05.334Z,100.00
2022-09-22T07:41:05.216Z,100.00
2022-09-22T07:42:01.997Z,100.00
2022-09-22T07:42:58.808Z,100.00
2022-09-22T07:44:22.509Z,100.00
2022-09-22T07:45:19.212Z,100.00
2022-09-22T07:46:16.018Z,100.00
2022-09-22T07:47:12.833Z,100.00
2022-09-22T07:48:27.965Z,100.00
2022-09-22T07:49:24.874Z,100.00
2022-09-22T07:50:22.501Z,100.00
2022-09-22T07:51:22.750Z,100.00
2022-09-22T07:52:19.528Z,100.00
2022-09-22T07:53:16.225Z,100.00
2022-09-22T07:54:13.227Z,100.00
2022-09-22T07:55:09.949Z,100.00
2022-09-22T07:56:13.468Z,100.00
2022-09-22T07:57:10.954Z,100.00
2022-09-22T07:58:09.830Z,98.07
2022-09-22T07:59:11.872Z,96.70
2022-09-22T08:00:09.294Z,98.46
2022-09-22T08:01:08.374Z,100.00
2022-09-22T08:02:06.012Z,98.84
2022-09-22T08:03:04.146Z,96.80
2022-09-22T08:04:01.333Z,97.12
2022-09-22T08:05:02.825Z,96.65
2022-09-22T08:06:06.272Z,98.56
2022-09-22T08:07:03.099Z,96.56
2022-09-22T08:08:02.295Z,94.25
2022-09-22T08:09:00.287Z,96.29
2022-09-22T08:09:58.074Z,94.40
2022-09-22T08:10:55.574Z,96.55
2022-09-22T08:11:53.542Z,98.61
2022-09-22T08:12:53.308Z,99.84
2022-09-22T08:13:55.684Z,98.93
2022-09-22T08:14:53.433Z,95.15
2022-09-22T08:15:56.116Z,94.94
2022-09-22T08:16:53.644Z,91.93
2022-09-22T08:17:56.998Z,89.65
2022-09-22T08:18:56.610Z,88.64
2022-09-22T08:19:53.459Z,89.60
2022-09-22T08:20:50.141Z,87.81
2022-09-22T08:24:23.182Z,86.35
2022-09-22T08:25:20.130Z,86.44
2022-09-22T08:26:16.872Z,84.71
2022-09-22T08:27:13.541Z,83.21
2022-09-22T08:28:10.305Z,86.38
2022-09-22T08:29:07.887Z,88.48
2022-09-22T08:30:07.571Z,87.98
2022-09-22T08:31:04.485Z,89.74
2022-09-22T08:32:01.290Z,89.29
2022-09-22T08:33:00.714Z,88.29
2022-09-22T08:33:58.355Z,88.00
2022-09-22T08:34:58.023Z,88.40
2022-09-22T08:35:57.634Z,88.14
2022-09-22T08:36:55.764Z,87.11
2022-09-22T08:37:52.441Z,84.52
2022-09-22T08:38:49.496Z,83.27
2022-09-22T08:39:46.211Z,82.86
2022-09-22T08:40:49.363Z,82.11
2022-09-22T08:41:48.826Z,82.86
2022-09-22T08:42:45.726Z,81.79
2022-09-22T08:43:57.415Z,81.74
2022-09-22T08:45:07.180Z,83.21
2022-09-22T08:46:04.847Z,81.46
2022-09-22T08:47:02.465Z,80.26
2022-09-22T08:48:53.745Z,76.79
2022-09-22T08:50:10.878Z,77.00
2022-09-22T08:51:37.089Z,76.05
2022-09-22T08:52:42.312Z,75.70
2022-09-22T08:53:47.665Z,74.73
2022-09-22T08:54:45.623Z,73.29
2022-09-22T08:55:46.921Z,73.91
2022-09-22T08:56:47.174Z,73.78
2022-09-22T08:57:59.389Z,72.05
2022-09-22T08:59:29.501Z,71.21
2022-09-22T09:00:42.484Z,70.80
2022-09-22T09:01:51.335Z,72.33
2022-09-22T09:03:04.752Z,72.83
2022-09-22T09:04:01.614Z,72.73
2022-09-22T09:05:42.562Z,69.84
2022-09-22T09:06:53.794Z,67.79
2022-09-22T09:08:14.693Z,69.03
2022-09-22T09:09:32.868Z,71.28
2022-09-22T09:10:47.377Z,70.53
2022-09-22T09:12:15.908Z,70.44
2022-09-22T09:13:42.134Z,71.12
2022-09-22T09:14:38.813Z,72.49
2022-09-22T09:15:54.894Z,72.32
2022-09-22T09:16:51.556Z,71.49
2022-09-22T09:17:52.219Z,69.51
2022-09-22T09:19:30.618Z,70.32
2022-09-22T09:20:42.260Z,65.10
2022-09-22T09:21:51.707Z,66.92
2022-09-22T09:22:56.223Z,65.70
2022-09-22T09:25:48.615Z,63.28
2022-09-22T09:26:47.022Z,63.08
2022-09-22T09:27:51.850Z,62.95
2022-09-22T09:29:00.323Z,61.49
2022-09-22T09:30:07.989Z,63.24
2022-09-22T09:31:31.341Z,63.48
2022-09-22T09:32:51.763Z,63.12
2022-09-22T09:33:58.656Z,64.58
2022-09-22T09:34:56.030Z,66.22
2022-09-22T09:35:53.627Z,66.77
2022-09-22T09:37:01.135Z,67.35
2022-09-22T09:38:01.264Z,67.48
2022-09-22T09:39:01.190Z,67.88
2022-09-22T09:40:05.103Z,68.09
2022-09-22T09:41:32.665Z,69.87
2022-09-22T09:42:34.870Z,71.42
2022-09-22T09:43:33.457Z,70.93
2022-09-22T09:44:35.500Z,71.38
2022-09-22T09:45:51.727Z,72.30
2022-09-22T09:46:51.764Z,71.65
2022-09-22T09:48:05.665Z,72.25
2022-09-22T09:49:17.737Z,70.70
2022-09-22T09:50:15.835Z,69.88
2022-09-22T09:51:14.304Z,68.56
2022-09-22T09:52:14.375Z,66.58
2022-09-22T09:53:31.159Z,65.36
2022-09-22T09:54:28.315Z,64.38
2022-09-22T09:55:27.224Z,63.39
2022-09-22T09:56:28.245Z,63.72
2022-09-22T09:57:28.282Z,64.71
2022-09-22T09:58:43.923Z,66.95
2022-09-22T10:00:02.215Z,65.83
2022-09-22T10:01:00.795Z,65.29
2022-09-22T10:01:57.979Z,67.27
2022-09-22T10:03:05.663Z,67.06
2022-09-22T10:04:02.417Z,66.13
2022-09-22T10:05:19.493Z,64.68
2022-09-22T10:06:25.373Z,63.56
2022-09-22T10:07:27.293Z,63.11
2022-09-22T10:08:24.453Z,64.10
2022-09-22T10:09:27.794Z,63.68
2022-09-22T10:10:35.330Z,64.00
2022-09-22T10:11:32.397Z,63.24
2022-09-22T10:12:32.521Z,62.99
2022-09-22T10:13:34.320Z,61.80
2022-09-22T10:14:35.145Z,62.78
2022-09-22T10:15:35.054Z,62.58
2022-09-22T10:16:34.335Z,62.30
2022-09-22T10:17:40.431Z,61.51
2022-09-22T10:18:40.517Z,61.08
2022-09-22T10:19:37.487Z,63.07
2022-09-22T10:20:34.549Z,62.46
2022-09-22T10:21:31.303Z,62.05
2022-09-22T10:22:28.909Z,62.25
2022-09-22T10:23:27.907Z,61.79
2022-09-22T10:24:33.184Z,60.57
2022-09-22T10:25:33.989Z,60.86
2022-09-22T10:26:33.204Z,61.55
2022-09-22T10:27:31.663Z,62.14
2022-09-22T10:28:28.379Z,61.49
2022-09-22T10:29:25.806Z,62.14
2022-09-22T10:30:23.932Z,62.56
2022-09-22T10:31:26.422Z,63.36
2022-09-22T10:32:23.129Z,63.34
2022-09-22T10:33:22.092Z,63.36
2022-09-22T10:34:38.699Z,63.46
2022-09-22T10:35:36.832Z,63.48
2022-09-22T10:36:44.165Z,63.16
2022-09-22T10:37:41.096Z,62.58
2022-09-22T10:38:41.166Z,62.17
2022-09-22T10:39:53.020Z,62.63
2022-09-22T10:40:58.162Z,62.04
2022-09-22T10:41:54.971Z,61.81
2022-09-22T10:42:57.617Z,62.02
2022-09-22T10:45:54.135Z,59.77
2022-09-22T10:47:28.165Z,58.94
2022-09-22T10:48:44.112Z,60.56
2022-09-22T10:49:49.621Z,60.49
2022-09-22T10:50:52.954Z,59.22
2022-09-22T10:51:54.889Z,57.36
2022-09-22T10:52:54.709Z,57.14
2022-09-22T10:54:17.620Z,57.88
2022-09-22T10:55:37.320Z,57.65
2022-09-22T10:56:42.155Z,55.75
2022-09-22T10:57:53.343Z,54.82
2022-09-22T10:59:04.896Z,54.97
2022-09-22T11:00:21.803Z,56.02
2022-09-22T11:02:10.347Z,55.79
2022-09-22T11:03:28.164Z,56.37
2022-09-22T11:04:54.880Z,54.77
2022-09-22T11:06:29.289Z,54.06
2022-09-22T11:08:10.478Z,53.44
2022-09-22T11:09:31.481Z,52.43
2022-09-22T11:11:28.801Z,53.34
2022-09-22T11:12:43.055Z,53.94
2022-09-22T11:14:04.410Z,54.63
2022-09-22T11:15:22.051Z,54.70
2022-09-22T11:16:46.092Z,54.94
2022-09-22T11:18:08.186Z,53.74
2022-09-22T11:19:38.816Z,54.35
2022-09-22T11:20:41.109Z,54.43
2022-09-22T11:21:56.638Z,54.37
2022-09-22T11:23:05.196Z,53.43
2022-09-22T11:24:05.831Z,54.26
2022-09-22T11:25:27.436Z,54.06
2022-09-22T11:26:47.317Z,54.63
2022-09-22T11:28:03.680Z,57.04
2022-09-22T11:29:09.539Z,58.15
2022-09-22T11:30:22.923Z,58.74
2022-09-22T11:31:49.807Z,58.79
2022-09-22T11:33:03.136Z,61.48
2022-09-22T11:34:21.428Z,64.23
2022-09-22T11:35:39.118Z,65.50
2022-09-22T11:36:58.806Z,65.91
2022-09-22T11:38:04.553Z,65.65
2022-09-22T11:39:08.908Z,65.97
2022-09-22T11:40:43.206Z,66.75
2022-09-22T11:41:43.993Z,68.63
2022-09-22T11:43:03.849Z,70.22
2022-09-22T11:44:14.406Z,70.58
2022-09-22T11:45:41.043Z,70.16
2022-09-22T11:47:08.680Z,69.61
2022-09-22T11:48:51.947Z,68.70
2022-09-22T11:49:55.006Z,68.86
2022-09-22T11:51:16.509Z,69.60
2022-09-22T11:52:19.025Z,68.57
2022-09-22T11:53:24.826Z,66.09
2022-09-22T11:54:21.465Z,66.01
2022-09-22T11:56:04.292Z,64.93
2022-09-22T11:57:07.475Z,64.01
2022-09-22T11:58:17.728Z,64.63
2022-09-22T11:59:56.360Z,62.13
2022-09-22T12:01:07.471Z,62.46
2022-09-22T12:02:21.376Z,61.32
2022-09-22T12:03:39.995Z,60.39
2022-09-22T12:04:46.694Z,59.48
2022-09-22T12:05:50.766Z,59.45
2022-09-22T12:06:55.484Z,57.45
2022-09-22T12:08:05.142Z,59.01
2022-09-22T12:09:06.974Z,58.42
2022-09-22T12:10:13.794Z,57.31
2022-09-22T12:11:16.022Z,57.43
2022-09-22T12:12:19.396Z,56.03
2022-09-22T12:13:25.554Z,55.20
2022-09-22T12:14:23.106Z,54.73
2022-09-22T12:15:45.003Z,55.62
2022-09-22T12:17:19.986Z,54.64
2022-09-22T12:18:44.970Z,55.02
2022-09-22T12:19:56.340Z,53.78
2022-09-22T12:21:13.832Z,52.88
2022-09-22T12:22:27.721Z,53.37
2022-09-22T12:23:36.758Z,53.45
2022-09-22T12:24:34.671Z,54.60
2022-09-22T12:25:54.457Z,54.36
2022-09-22T12:26:52.339Z,55.09
2022-09-22T12:27:49.566Z,53.85
2022-09-22T12:28:46.552Z,54.00
2022-09-22T12:29:44.461Z,54.22
2022-09-22T12:30:57.037Z,54.13
2022-09-22T12:31:57.249Z,55.27
2022-09-22T12:32:53.965Z,54.93
2022-09-22T12:33:56.354Z,54.48
2022-09-22T12:34:58.454Z,55.20
2022-09-22T12:35:57.455Z,55.45
2022-09-22T12:36:59.498Z,54.36
2022-09-22T12:37:59.993Z,54.98
2022-09-22T12:39:11.652Z,55.96
2022-09-22T12:40:14.562Z,55.48
2022-09-22T12:41:18.697Z,56.63
2022-09-22T12:42:35.142Z,57.45
2022-09-22T12:43:35.506Z,58.05
2022-09-22T12:44:38.330Z,58.24
2022-09-22T12:45:40.854Z,57.65
2022-09-22T12:46:43.213Z,57.53
2022-09-22T12:47:46.873Z,56.80
2022-09-22T12:48:46.739Z,57.64
2022-09-22T12:50:02.662Z,57.52
2022-09-22T12:51:24.442Z,55.84
2022-09-22T12:52:39.554Z,55.67
2022-09-22T12:53:40.251Z,55.17
2022-09-22T12:54:40.468Z,55.51
2022-09-22T12:55:40.074Z,54.87
2022-09-22T12:56:46.569Z,54.26
2022-09-22T12:57:51.629Z,55.51
2022-09-22T12:58:48.369Z,54.72
2022-09-22T13:00:05.506Z,54.23
2022-09-22T13:01:26.914Z,53.40
2022-09-22T13:02:31.828Z,53.56
2022-09-22T13:03:30.537Z,53.64
2022-09-22T13:04:27.241Z,52.19
2022-09-22T13:05:26.495Z,52.30
2022-09-22T13:06:23.150Z,52.57
2022-09-22T13:07:39.649Z,51.50
2022-09-22T13:08:36.706Z,51.88
2022-09-22T13:09:33.444Z,50.50
2022-09-22T13:10:30.076Z,51.59
2022-09-22T13:12:04.016Z,51.28
2022-09-22T13:13:03.856Z,51.45
2022-09-22T13:14:00.733Z,52.26
2022-09-22T13:15:11.274Z,51.87
2022-09-22T13:16:14.046Z,52.39
2022-09-22T13:17:33.145Z,50.99
2022-09-22T13:18:39.828Z,51.84
2022-09-22T13:19:36.631Z,51.86
2022-09-22T13:20:35.575Z,52.12